Time;durP1;ratioP1;P1;durP2;ratioP2;P2;SDS_P1;SDS_P2;PMS_P1;PMS_P2;Temp;Humidity;BMP_temperature;BMP_pressure;BME280_temperature;BME280_humidity;BME280_pressure;Samples;Min_cycle;Max_cycle;Signal;HPM_P1;HPM_P2
2021/08/16 00:00:17;;;;;;;33.22;20.23;;;21.30;72.30;;;;;;5034460;28;20029;-69
2021/08/16 00:02:46;;;;;;;35.70;20.55;;;21.30;72.50;;;;;;5034993;28;20029;-68
2021/08/16 00:05:14;;;;;;;35.72;19.55;;;21.20;72.60;;;;;;5034815;28;20017;-68
2021/08/16 00:07:41;;;;;;;40.42;20.52;;;21.20;72.70;;;;;;5035781;28;20076;-68
2021/08/16 00:10:07;;;;;;;39.10;19.20;;;21.30;72.90;;;;;;5034835;28;20033;-68
2021/08/16 00:12:33;;;;;;;38.28;19.92;;;21.20;72.90;;;;;;5034681;28;20036;-68
2021/08/16 00:15:03;;;;;;;38.13;20.63;;;21.20;73.00;;;;;;5034889;28;20017;-68
2021/08/16 00:17:29;;;;;;;37.10;20.77;;;21.30;73.00;;;;;;5035364;28;20029;-67
2021/08/16 00:19:54;;;;;;;40.28;20.33;;;21.30;72.80;;;;;;5034269;28;20021;-68
2021/08/16 00:22:20;;;;;;;41.80;20.90;;;21.40;72.80;;;;;;5035072;28;20048;-68
2021/08/16 00:24:47;;;;;;;37.97;20.08;;;21.40;72.70;;;;;;5034459;28;20053;-68
2021/08/16 00:27:13;;;;;;;39.63;20.30;;;21.40;72.60;;;;;;5033709;28;20029;-68
2021/08/16 00:29:39;;;;;;;36.35;21.33;;;21.40;72.60;;;;;;5035044;28;20023;-67
2021/08/16 00:32:05;;;;;;;39.92;21.08;;;21.40;72.60;;;;;;5034679;28;20519;-68
2021/08/16 00:34:30;;;;;;;37.60;21.48;;;21.40;72.60;;;;;;5035121;28;20029;-68
2021/08/16 00:36:56;;;;;;;43.13;22.48;;;21.40;72.70;;;;;;5034031;28;20112;-68
2021/08/16 00:39:22;;;;;;;40.88;22.02;;;21.30;72.80;;;;;;5034385;28;20018;-68
2021/08/16 00:41:49;;;;;;;42.88;20.95;;;21.30;73.10;;;;;;5035006;28;20504;-68
2021/08/16 00:44:15;;;;;;;46.85;23.35;;;21.30;73.10;;;;;;5034429;28;20076;-68
2021/08/16 00:46:41;;;;;;;39.13;21.10;;;21.30;73.10;;;;;;5035008;28;20053;-68
2021/08/16 00:49:07;;;;;;;42.35;20.58;;;21.20;73.20;;;;;;5034194;28;20112;-68
2021/08/16 00:51:35;;;;;;;39.40;20.77;;;21.20;73.40;;;;;;5033771;28;20121;-68
2021/08/16 00:54:04;;;;;;;37.88;19.90;;;21.20;73.50;;;;;;5033822;28;20021;-68
2021/08/16 00:56:31;;;;;;;38.00;20.75;;;21.20;73.50;;;;;;5034878;28;20079;-68
2021/08/16 00:58:58;;;;;;;38.00;20.80;;;21.30;73.50;;;;;;5034848;28;20473;-68
2021/08/16 01:01:27;;;;;;;44.65;23.98;;;21.30;73.30;;;;;;5033979;28;20034;-68
2021/08/16 01:03:52;;;;;;;60.42;28.20;;;21.30;73.10;;;;;;5035125;28;20111;-69
2021/08/16 01:06:19;;;;;;;50.50;26.33;;;21.30;73.00;;;;;;5033175;28;20056;-68
2021/08/16 01:08:48;;;;;;;52.63;26.83;;;21.30;73.10;;;;;;5035359;28;20044;-68
2021/08/16 01:11:15;;;;;;;47.20;24.33;;;21.30;73.20;;;;;;5033917;28;20033;-68
2021/08/16 01:13:42;;;;;;;43.33;21.60;;;21.30;73.30;;;;;;5033930;28;20113;-72
2021/08/16 01:16:08;;;;;;;40.75;22.27;;;21.30;73.20;;;;;;5036719;28;20036;-71
2021/08/16 01:18:34;;;;;;;40.30;22.67;;;21.30;73.10;;;;;;5033026;28;20025;-71
2021/08/16 01:21:09;;;;;;;38.85;21.27;;;21.30;73.00;;;;;;5033443;28;20033;-72
2021/08/16 01:23:36;;;;;;;35.42;19.50;;;21.30;72.90;;;;;;5035366;28;20108;-71
2021/08/16 01:26:02;;;;;;;36.22;19.80;;;21.30;72.80;;;;;;5032848;28;20447;-72
2021/08/16 01:28:28;;;;;;;33.17;19.42;;;21.30;72.70;;;;;;5030539;28;20390;-72
2021/08/16 01:30:57;;;;;;;39.35;18.83;;;21.30;72.70;;;;;;5032635;28;20041;-73
2021/08/16 01:33:24;;;;;;;33.80;17.83;;;21.30;72.70;;;;;;5034412;28;20083;-73
2021/08/16 01:35:50;;;;;;;32.50;18.27;;;21.30;72.70;;;;;;5034173;28;20040;-73
2021/08/16 01:38:26;;;;;;;35.65;17.88;;;21.30;72.70;;;;;;5035042;28;20024;-72
2021/08/16 01:40:52;;;;;;;31.50;17.90;;;21.30;72.80;;;;;;5033918;28;20029;-72
2021/08/16 01:43:17;;;;;;;31.15;17.77;;;21.30;72.80;;;;;;5034255;28;20367;-74
2021/08/16 01:45:43;;;;;;;30.80;17.90;;;21.30;72.90;;;;;;5032315;28;20088;-71
2021/08/16 01:48:11;;;;;;;28.65;16.83;;;21.30;72.90;;;;;;5031279;28;20383;-72
2021/08/16 01:50:37;;;;;;;33.03;17.83;;;21.20;73.00;;;;;;5033148;28;20033;-72
2021/08/16 01:53:03;;;;;;;32.67;17.70;;;21.20;73.10;;;;;;5033958;28;20075;-72
2021/08/16 01:55:28;;;;;;;34.42;17.42;;;21.20;73.10;;;;;;5032698;28;20028;-72
2021/08/16 01:57:54;;;;;;;35.35;19.00;;;21.20;73.20;;;;;;5033184;28;20453;-73
2021/08/16 02:00:20;;;;;;;31.85;17.58;;;21.20;73.30;;;;;;5033436;28;20360;-72
2021/08/16 02:02:46;;;;;;;33.78;18.23;;;21.10;73.40;;;;;;5033857;28;20032;-72
2021/08/16 02:05:12;;;;;;;33.22;17.95;;;21.10;73.40;;;;;;5034210;28;20022;-72
2021/08/16 02:07:37;;;;;;;30.95;17.80;;;21.10;73.50;;;;;;5033960;28;20045;-72
2021/08/16 02:10:04;;;;;;;30.60;18.33;;;21.00;73.60;;;;;;5034018;28;20040;-72
2021/08/16 02:12:30;;;;;;;32.17;18.08;;;21.00;73.70;;;;;;5032452;28;20375;-73
2021/08/16 02:14:56;;;;;;;30.17;17.60;;;21.00;73.80;;;;;;5033277;28;20032;-72
2021/08/16 02:17:21;;;;;;;35.15;17.52;;;20.90;74.10;;;;;;5031708;28;20084;-72
2021/08/16 02:19:48;;;;;;;31.50;17.25;;;20.80;74.20;;;;;;5030646;28;20029;-72
2021/08/16 02:22:15;;;;;;;31.50;17.98;;;20.80;74.40;;;;;;5033617;28;20071;-72
2021/08/16 02:24:41;;;;;;;29.50;16.70;;;20.70;74.50;;;;;;5033663;28;20031;-72
2021/08/16 02:27:06;;;;;;;32.15;17.05;;;20.70;74.80;;;;;;5032008;28;20104;-72
2021/08/16 02:29:33;;;;;;;29.10;16.50;;;20.60;75.00;;;;;;5033385;28;20040;-72
2021/08/16 02:31:59;;;;;;;33.00;15.98;;;20.60;75.20;;;;;;5033562;28;20134;-72
2021/08/16 02:34:24;;;;;;;31.55;17.83;;;20.50;75.30;;;;;;5033422;28;20105;-72
2021/08/16 02:36:50;;;;;;;30.95;17.67;;;20.40;75.50;;;;;;5032992;28;20021;-72
2021/08/16 02:39:16;;;;;;;28.80;16.60;;;20.40;75.80;;;;;;5031657;28;20026;-73
2021/08/16 02:41:41;;;;;;;29.10;17.10;;;20.30;76.00;;;;;;5033002;28;20463;-73
2021/08/16 02:44:07;;;;;;;31.10;17.38;;;20.30;76.90;;;;;;5033931;28;20443;-72
2021/08/16 02:46:33;;;;;;;27.85;16.63;;;20.20;76.40;;;;;;5033301;28;20056;-72
2021/08/16 02:48:59;;;;;;;26.15;16.27;;;20.20;76.60;;;;;;5029411;28;20033;-72
2021/08/16 02:51:26;;;;;;;29.08;16.70;;;20.30;76.60;;;;;;5031407;28;20494;-72
2021/08/16 02:53:52;;;;;;;35.65;18.75;;;20.20;76.60;;;;;;5033669;28;20022;-71
2021/08/16 02:56:18;;;;;;;50.20;24.50;;;20.30;76.60;;;;;;5032585;28;20030;-71
2021/08/16 02:58:44;;;;;;;46.58;23.23;;;20.30;76.60;;;;;;5033104;28;20378;-72
2021/08/16 03:01:10;;;;;;;37.22;20.52;;;20.30;76.70;;;;;;5032905;28;20482;-71
2021/08/16 03:03:35;;;;;;;42.83;20.85;;;20.30;76.80;;;;;;5033315;28;20034;-72
2021/08/16 03:06:01;;;;;;;53.72;24.20;;;20.40;76.90;;;;;;5033046;28;20029;-71
2021/08/16 03:08:27;;;;;;;52.20;24.77;;;20.40;76.80;;;;;;5034207;28;20403;-72
2021/08/16 03:10:53;;;;;;;41.83;21.13;;;20.50;76.70;;;;;;5035137;28;20026;-72
2021/08/16 03:13:19;;;;;;;40.65;20.73;;;20.60;76.70;;;;;;5036285;28;20032;-72
2021/08/16 03:15:44;;;;;;;42.17;21.60;;;20.80;76.50;;;;;;5035212;28;20041;-72
2021/08/16 03:18:10;;;;;;;38.20;19.42;;;21.00;76.10;;;;;;5035053;28;20104;-72
2021/08/16 03:20:35;;;;;;;37.00;19.15;;;21.10;75.70;;;;;;5036595;28;20025;-72
2021/08/16 03:23:01;;;;;;;35.53;18.88;;;21.30;75.40;;;;;;5036836;28;20030;-72
2021/08/16 03:25:27;;;;;;;34.85;18.60;;;21.50;74.90;;;;;;5036761;28;20018;-74
2021/08/16 03:27:53;;;;;;;34.00;16.80;;;21.70;74.20;;;;;;5035216;28;20034;-72
2021/08/16 03:30:19;;;;;;;30.80;17.05;;;21.90;74.40;;;;;;5036373;28;20203;-72
2021/08/16 03:32:47;;;;;;;30.00;16.30;;;22.10;73.20;;;;;;5035114;28;20526;-72
2021/08/16 03:35:14;;;;;;;32.33;17.00;;;22.40;72.60;;;;;;5036095;28;20033;-74
2021/08/16 03:37:40;;;;;;;32.25;16.35;;;22.70;71.90;;;;;;5036628;28;20025;-73
2021/08/16 03:40:07;;;;;;;30.10;16.30;;;22.90;71.10;;;;;;5036249;28;20416;-73
2021/08/16 03:42:34;;;;;;;28.02;15.95;;;23.20;70.40;;;;;;5036177;28;20030;-73
2021/08/16 03:45:00;;;;;;;32.10;16.27;;;23.40;69.50;;;;;;5036361;28;20018;-73
2021/08/16 03:47:26;;;;;;;28.08;14.73;;;23.70;68.90;;;;;;5034322;28;20080;-74
2021/08/16 03:49:54;;;;;;;27.90;15.98;;;23.90;68.20;;;;;;5036454;28;20475;-73
2021/08/16 03:52:19;;;;;;;33.97;16.52;;;24.20;67.30;;;;;;5034437;28;20060;-73
2021/08/16 03:54:45;;;;;;;35.47;16.58;;;24.40;66.60;;;;;;5036145;28;20048;-74
2021/08/16 03:57:11;;;;;;;36.88;16.85;;;24.70;66.10;;;;;;5035807;28;20455;-71
2021/08/16 03:59:37;;;;;;;32.38;17.70;;;24.90;65.50;;;;;;5034563;28;20028;-71
2021/08/16 04:02:03;;;;;;;32.60;18.35;;;25.00;64.90;;;;;;5033694;28;20068;-72
2021/08/16 04:04:28;;;;;;;37.72;18.05;;;25.30;64.60;;;;;;5016531;28;20021;-72
2021/08/16 04:06:54;;;;;;;31.70;17.02;;;25.50;64.00;;;;;;5021124;28;20068;-72
2021/08/16 04:09:20;;;;;;;36.28;17.73;;;25.60;63.60;;;;;;5034876;28;20078;-75
2021/08/16 04:11:45;;;;;;;34.58;16.67;;;25.90;63.20;;;;;;5035751;28;20034;-77
2021/08/16 04:14:11;;;;;;;37.67;17.00;;;26.10;62.70;;;;;;5035078;28;20107;-76
2021/08/16 04:16:37;;;;;;;39.38;17.05;;;26.40;62.20;;;;;;5036796;28;20021;-83
2021/08/16 04:19:04;;;;;;;36.67;16.80;;;26.60;61.60;;;;;;5040527;28;20131;-77
2021/08/16 04:21:30;;;;;;;32.60;17.60;;;26.70;61.10;;;;;;5050794;28;20025;-83
2021/08/16 04:23:56;;;;;;;29.23;16.42;;;26.90;60.70;;;;;;5082547;28;20025;-83
2021/08/16 04:26:21;;;;;;;34.80;16.10;;;26.90;60.20;;;;;;5073539;28;20033;-78
2021/08/16 04:28:47;;;;;;;33.92;16.42;;;27.00;60.10;;;;;;5033537;28;20029;-84
2021/08/16 04:31:13;;;;;;;33.70;16.50;;;27.10;59.80;;;;;;5048287;28;20047;-81
2021/08/16 04:33:39;;;;;;;31.33;16.42;;;27.20;59.50;;;;;;5050343;28;20071;-87
2021/08/16 04:36:04;;;;;;;30.20;16.60;;;27.30;59.40;;;;;;5033950;28;20025;-88
2021/08/16 04:38:33;;;;;;;33.50;16.48;;;27.40;59.30;;;;;;5033617;28;20026;-75
2021/08/16 04:40:59;;;;;;;31.42;17.05;;;27.50;59.40;;;;;;5067850;28;20464;-80
2021/08/16 04:43:25;;;;;;;26.73;17.17;;;27.60;59.30;;;;;;5033768;28;20026;-69
2021/08/16 04:45:50;;;;;;;34.10;17.50;;;27.80;59.10;;;;;;5033099;28;20379;-77
2021/08/16 04:48:16;;;;;;;30.83;18.05;;;28.10;58.60;;;;;;5033816;28;20030;-78
2021/08/16 04:50:42;;;;;;;29.35;17.48;;;28.40;58.10;;;;;;5032668;28;20033;-70
2021/08/16 04:53:08;;;;;;;30.38;17.70;;;28.70;57.40;;;;;;5033071;28;20021;-79
2021/08/16 04:55:34;;;;;;;25.33;16.13;;;29.00;56.80;;;;;;5035023;28;20467;-81
2021/08/16 04:58:03;;;;;;;31.50;16.80;;;29.20;55.80;;;;;;5046506;28;20068;-77
2021/08/16 05:00:29;;;;;;;28.83;16.88;;;29.40;55.50;;;;;;5033139;28;20040;-79
2021/08/16 05:02:56;;;;;;;27.42;15.85;;;29.50;55.20;;;;;;5033894;28;20026;-77
2021/08/16 05:05:29;;;;;;;28.98;16.95;;;29.70;55.00;;;;;;5033267;28;20044;-81
2021/08/16 05:07:55;;;;;;;26.73;16.08;;;29.80;54.40;;;;;;5033274;28;20049;-80
2021/08/16 05:10:23;;;;;;;32.45;16.73;;;29.90;54.30;;;;;;5034646;28;20132;-81
2021/08/16 05:12:50;;;;;;;28.65;16.13;;;30.10;53.90;;;;;;5054102;28;20053;-80
2021/08/16 05:15:17;;;;;;;35.80;18.05;;;30.20;53.60;;;;;;5013891;28;20025;-81
2021/08/16 05:17:43;;;;;;;27.48;16.00;;;30.50;53.60;;;;;;5013793;28;20053;-81
2021/08/16 05:20:10;;;;;;;32.33;15.98;;;30.80;53.20;;;;;;5021960;28;20032;-81
2021/08/16 05:22:38;;;;;;;31.55;16.17;;;31.10;52.70;;;;;;5034374;28;20033;-81
2021/08/16 05:25:09;;;;;;;29.63;16.35;;;31.40;52.00;;;;;;5038954;28;20485;-79
2021/08/16 05:27:34;;;;;;;27.90;14.32;;;31.70;51.70;;;;;;5040262;28;20028;-80
2021/08/16 05:30:00;;;;;;;34.50;15.10;;;31.90;51.50;;;;;;5054433;28;20104;-80
2021/08/16 05:32:26;;;;;;;24.00;15.48;;;32.00;50.90;;;;;;5054214;28;20028;-78
2021/08/16 05:34:52;;;;;;;25.65;16.00;;;32.10;50.70;;;;;;5053346;28;20032;-85
2021/08/16 05:37:17;;;;;;;26.35;14.98;;;32.20;50.20;;;;;;5049623;28;20022;-76
2021/08/16 05:39:43;;;;;;;25.83;14.57;;;32.20;50.20;;;;;;5032843;28;20056;-76
2021/08/16 05:42:09;;;;;;;29.73;16.80;;;32.30;50.40;;;;;;5033740;28;20026;-76
2021/08/16 05:44:35;;;;;;;27.30;15.77;;;32.60;50.50;;;;;;5032641;28;20021;-76
2021/08/16 05:47:05;;;;;;;30.35;16.58;;;32.90;50.80;;;;;;5051631;28;20041;-75
2021/08/16 05:49:31;;;;;;;28.33;17.38;;;33.30;50.20;;;;;;5053177;28;20024;-76
2021/08/16 05:51:57;;;;;;;35.10;17.55;;;33.50;49.80;;;;;;5053562;28;20029;-76
2021/08/16 05:54:23;;;;;;;29.80;17.23;;;33.80;49.50;;;;;;5052988;28;20448;-76
2021/08/16 05:56:48;;;;;;;29.73;17.33;;;34.00;49.40;;;;;;5055807;28;20056;-76
2021/08/16 05:59:14;;;;;;;29.70;16.55;;;34.30;48.90;;;;;;5055958;28;20445;-76
2021/08/16 06:01:40;;;;;;;28.58;17.48;;;34.30;48.70;;;;;;5056545;28;20032;-77
2021/08/16 06:04:06;;;;;;;32.80;17.70;;;34.40;48.00;;;;;;5053831;28;20067;-76
2021/08/16 06:06:33;;;;;;;26.33;16.58;;;34.60;47.80;;;;;;5052739;28;20017;-76
2021/08/16 06:08:59;;;;;;;30.10;16.90;;;34.70;47.50;;;;;;5052983;28;20049;-77
2021/08/16 06:11:25;;;;;;;23.52;15.85;;;34.90;47.40;;;;;;5052700;28;20056;-77
2021/08/16 06:13:51;;;;;;;27.58;15.55;;;35.10;47.10;;;;;;5052421;28;20442;-76
2021/08/16 06:16:17;;;;;;;24.35;14.43;;;35.20;46.80;;;;;;5053698;28;20074;-76
2021/08/16 06:18:43;;;;;;;24.13;13.95;;;35.40;46.70;;;;;;5053599;28;20053;-76
2021/08/16 06:21:09;;;;;;;24.67;14.30;;;35.50;46.30;;;;;;5052429;28;20024;-77
2021/08/16 06:23:35;;;;;;;23.30;14.32;;;35.70;46.40;;;;;;5053587;28;20017;-77
2021/08/16 06:26:02;;;;;;;24.38;13.65;;;35.80;46.10;;;;;;5052536;28;20021;-77
2021/08/16 06:28:28;;;;;;;18.27;12.60;;;35.90;45.60;;;;;;5053439;28;20017;-77
2021/08/16 06:30:53;;;;;;;22.23;13.70;;;36.00;45.30;;;;;;5053607;28;20043;-77
2021/08/16 06:33:19;;;;;;;21.50;12.25;;;36.20;45.10;;;;;;5052337;28;20036;-77
2021/08/16 06:35:46;;;;;;;23.10;13.60;;;36.60;44.90;;;;;;5053690;28;20020;-77
2021/08/16 06:38:22;;;;;;;24.52;13.40;;;36.80;44.10;;;;;;5053611;28;20103;-77
2021/08/16 06:40:56;;;;;;;22.52;13.40;;;37.00;43.60;;;;;;5052409;28;20462;-77
2021/08/16 06:43:25;;;;;;;22.00;13.10;;;37.10;43.00;;;;;;5053600;28;20021;-78
2021/08/16 06:45:51;;;;;;;21.90;12.93;;;37.30;43.10;;;;;;5056683;28;20021;-77
2021/08/16 06:48:17;;;;;;;25.38;14.10;;;37.40;43.00;;;;;;5056322;28;20028;-77
2021/08/16 06:50:44;;;;;;;25.65;13.40;;;37.60;43.10;;;;;;5056541;28;20025;-77
2021/08/16 06:53:14;;;;;;;20.48;12.68;;;37.50;42.90;;;;;;5056141;28;20371;-77
2021/08/16 06:55:40;;;;;;;17.63;12.73;;;37.70;42.60;;;;;;5056067;28;20017;-77
2021/08/16 06:58:06;;;;;;;24.10;15.50;;;37.90;42.80;;;;;;5055956;28;20075;-78
2021/08/16 07:00:32;;;;;;;17.63;10.30;;;38.00;42.10;;;;;;5055936;28;20033;-77
2021/08/16 07:02:58;;;;;;;20.23;11.80;;;38.10;40.70;;;;;;5057356;28;20452;-77
2021/08/16 07:05:24;;;;;;;23.10;11.48;;;38.10;40.40;;;;;;5056022;28;20029;-77
2021/08/16 07:07:52;;;;;;;28.70;15.15;;;38.30;40.00;;;;;;5055717;28;20118;-77
2021/08/16 07:10:19;;;;;;;75.38;32.85;;;38.40;39.60;;;;;;5056842;28;20090;-77
2021/08/16 07:12:45;;;;;;;177.25;70.00;;;38.40;38.90;;;;;;5055763;28;20060;-77
2021/08/16 07:15:11;;;;;;;216.85;84.75;;;38.60;38.60;;;;;;5055846;28;20029;-77
2021/08/16 07:17:37;;;;;;;144.45;55.75;;;38.70;39.10;;;;;;5056983;28;20092;-78
2021/08/16 07:20:04;;;;;;;128.18;49.42;;;38.80;38.90;;;;;;5056122;28;20402;-77
2021/08/16 07:22:30;;;;;;;112.38;43.50;;;38.90;39.00;;;;;;5055634;28;20025;-77
2021/08/16 07:24:55;;;;;;;72.78;29.73;;;38.90;38.90;;;;;;5055695;28;20040;-77
2021/08/16 07:27:21;;;;;;;58.95;26.25;;;38.90;39.20;;;;;;5056796;28;20025;-77
2021/08/16 07:29:47;;;;;;;53.78;25.02;;;39.10;39.00;;;;;;5056875;28;20027;-77
2021/08/16 07:32:13;;;;;;;57.35;25.40;;;39.30;38.90;;;;;;5056919;28;20434;-77
2021/08/16 07:34:39;;;;;;;31.83;16.17;;;39.30;38.80;;;;;;5056840;28;20064;-77
2021/08/16 07:37:08;;;;;;;22.48;11.50;;;39.40;38.80;;;;;;5056768;28;20017;-77
2021/08/16 07:39:33;;;;;;;14.60;8.45;;;39.70;38.30;;;;;;5055100;28;20119;-77
2021/08/16 07:41:59;;;;;;;17.05;10.00;;;39.80;37.80;;;;;;5056435;28;20108;-77
2021/08/16 07:44:25;;;;;;;16.45;8.52;;;39.90;37.70;;;;;;5055328;28;20025;-77
2021/08/16 07:46:51;;;;;;;11.80;7.15;;;40.00;37.20;;;;;;5056491;28;20435;-77
2021/08/16 07:49:16;;;;;;;12.57;5.75;;;39.90;37.10;;;;;;5056098;28;20071;-77
2021/08/16 07:51:42;;;;;;;10.35;5.70;;;39.90;36.20;;;;;;5056235;28;20025;-77
2021/08/16 07:54:08;;;;;;;8.10;4.90;;;39.90;36.00;;;;;;5054064;28;20047;-77
2021/08/16 07:56:33;;;;;;;8.18;5.43;;;39.80;35.50;;;;;;5055831;28;20025;-77
2021/08/16 07:58:59;;;;;;;13.43;6.28;;;39.60;35.90;;;;;;5056291;28;20029;-78
2021/08/16 08:01:25;;;;;;;11.70;5.78;;;39.60;36.50;;;;;;5055145;28;20025;-77
2021/08/16 08:03:50;;;;;;;13.00;4.90;;;39.60;36.40;;;;;;5054876;28;20029;-77
2021/08/16 08:06:17;;;;;;;9.88;5.35;;;39.60;35.60;;;;;;5056254;28;20032;-77
2021/08/16 08:08:44;;;;;;;9.25;5.00;;;39.60;36.20;;;;;;5054919;28;20056;-77
2021/08/16 08:11:10;;;;;;;9.02;5.40;;;39.70;35.90;;;;;;5054877;28;20032;-77
2021/08/16 08:13:37;;;;;;;8.95;4.80;;;39.90;36.50;;;;;;5056189;28;20028;-77
2021/08/16 08:16:03;;;;;;;11.20;4.70;;;40.10;36.00;;;;;;5055882;28;20435;-77
2021/08/16 08:18:28;;;;;;;8.93;5.30;;;40.20;35.70;;;;;;5054693;28;20031;-77
2021/08/16 08:20:54;;;;;;;22.17;11.10;;;39.90;35.80;;;;;;5055917;28;20036;-77
2021/08/16 08:23:20;;;;;;;22.20;11.30;;;39.80;36.70;;;;;;5054778;28;20044;-77
2021/08/16 08:25:45;;;;;;;22.13;12.43;;;39.70;36.90;;;;;;5055815;28;20059;-77
2021/08/16 08:28:12;;;;;;;33.10;20.00;;;39.60;37.20;;;;;;5054530;28;20027;-77
2021/08/16 08:30:39;;;;;;;31.50;17.02;;;39.60;38.10;;;;;;5056214;28;20024;-77
2021/08/16 08:33:05;;;;;;;30.13;14.70;;;39.50;38.40;;;;;;5055969;28;20029;-77
2021/08/16 08:35:31;;;;;;;35.08;16.35;;;39.50;38.60;;;;;;5054441;28;20032;-78
2021/08/16 08:37:57;;;;;;;25.45;13.55;;;39.40;38.60;;;;;;5055640;28;20017;-77
2021/08/16 08:40:23;;;;;;;24.38;12.70;;;39.00;38.60;;;;;;5055555;28;20033;-77
2021/08/16 08:42:53;;;;;;;21.77;8.95;;;38.80;39.10;;;;;;5054194;28;20024;-77
2021/08/16 08:45:29;;;;;;;25.92;9.93;;;38.70;38.50;;;;;;5055819;28;20470;-76
2021/08/16 08:47:55;;;;;;;21.35;8.88;;;38.70;38.70;;;;;;5054292;28;20028;-77
2021/08/16 08:50:21;;;;;;;14.80;7.70;;;38.80;38.30;;;;;;5055223;28;20363;-76
2021/08/16 08:52:48;;;;;;;15.13;8.13;;;38.70;38.30;;;;;;5053951;28;20025;-77
2021/08/16 08:55:14;;;;;;;16.88;7.45;;;38.50;38.70;;;;;;5055061;28;20029;-77
2021/08/16 08:57:40;;;;;;;14.13;7.28;;;38.40;38.70;;;;;;5053637;28;20103;-77
2021/08/16 09:00:08;;;;;;;16.17;6.88;;;38.30;39.00;;;;;;5055044;28;20029;-77
2021/08/16 09:02:35;;;;;;;16.23;7.95;;;38.30;39.40;;;;;;5053802;28;20121;-77
2021/08/16 09:05:02;;;;;;;14.00;7.32;;;38.20;39.60;;;;;;5055168;28;20017;-78
2021/08/16 09:07:35;;;;;;;10.13;7.22;;;38.10;39.40;;;;;;5052964;28;20053;-77
2021/08/16 09:10:09;;;;;;;18.10;7.40;;;38.00;39.50;;;;;;5053955;28;20478;-77
2021/08/16 09:12:36;;;;;;;12.85;6.60;;;37.90;39.50;;;;;;5054929;28;20071;-77
2021/08/16 09:15:13;;;;;;;13.70;7.20;;;38.10;40.50;;;;;;5053488;28;20459;-76
2021/08/16 09:17:39;;;;;;;15.75;7.13;;;38.40;40.00;;;;;;5054779;28;20021;-77
2021/08/16 09:20:19;;;;;;;15.38;8.98;;;38.60;39.70;;;;;;5054518;28;20017;-77
2021/08/16 09:22:57;;;;;;;18.08;7.32;;;38.70;39.50;;;;;;5055205;28;20025;-77
2021/08/16 09:25:24;;;;;;;12.13;7.40;;;38.80;38.80;;;;;;5054863;28;20522;-77
2021/08/16 09:27:50;;;;;;;9.90;6.55;;;38.70;39.20;;;;;;5053384;28;20112;-77
2021/08/16 09:30:16;;;;;;;12.55;6.50;;;38.60;39.00;;;;;;5052987;28;20136;-77
2021/08/16 09:32:43;;;;;;;14.10;7.30;;;38.50;39.10;;;;;;5053244;28;20025;-77
2021/08/16 09:35:14;;;;;;;12.85;6.95;;;38.40;39.10;;;;;;5053188;28;20032;-77
2021/08/16 09:37:41;;;;;;;20.98;8.73;;;38.40;39.70;;;;;;5054373;28;20087;-77
2021/08/16 09:40:11;;;;;;;18.58;8.05;;;38.40;39.30;;;;;;5053331;28;20370;-77
2021/08/16 09:42:51;;;;;;;16.70;8.45;;;38.40;38.80;;;;;;5052880;28;20451;-78
2021/08/16 09:45:30;;;;;;;22.67;8.90;;;38.50;39.20;;;;;;5053528;28;20081;-77
2021/08/16 09:48:00;;;;;;;21.88;8.90;;;38.80;39.60;;;;;;5052954;28;20021;-77
2021/08/16 09:50:46;;;;;;;14.90;6.82;;;39.10;39.40;;;;;;5052695;28;20029;-77
2021/08/16 09:53:17;;;;;;;12.07;6.90;;;39.20;38.40;;;;;;5052621;28;20508;-77
2021/08/16 09:55:45;;;;;;;15.77;6.72;;;39.20;38.70;;;;;;5053370;28;20024;-77
2021/08/16 09:58:14;;;;;;;12.73;6.18;;;39.20;38.40;;;;;;5054002;28;20509;-78
2021/08/16 10:00:41;;;;;;;14.45;6.72;;;39.10;38.40;;;;;;5053862;28;20029;-77
2021/08/16 10:03:08;;;;;;;11.90;5.72;;;38.80;39.10;;;;;;5052876;28;20079;-77
2021/08/16 10:05:37;;;;;;;16.70;6.15;;;38.70;39.00;;;;;;5052703;28;20025;-77
2021/08/16 10:08:06;;;;;;;11.52;5.57;;;38.40;39.30;;;;;;5052450;28;20114;-77
2021/08/16 10:10:33;;;;;;;12.18;7.22;;;38.20;39.20;;;;;;5053833;28;20040;-76
2021/08/16 10:13:01;;;;;;;10.60;5.90;;;38.10;39.30;;;;;;5052584;28;20024;-77
2021/08/16 10:15:27;;;;;;;12.70;5.90;;;38.00;39.60;;;;;;5052490;28;20017;-76
2021/08/16 10:17:53;;;;;;;10.75;5.32;;;38.00;39.40;;;;;;5053013;28;20021;-76
2021/08/16 10:20:19;;;;;;;13.68;5.93;;;38.00;39.50;;;;;;5053432;28;20021;-77
2021/08/16 10:22:45;;;;;;;12.23;6.40;;;38.00;39.50;;;;;;5052322;28;20028;-77
2021/08/16 10:25:15;;;;;;;13.98;7.07;;;38.00;39.50;;;;;;5053556;28;20339;-76
2021/08/16 10:27:42;;;;;;;14.52;6.30;;;38.00;39.90;;;;;;5052177;28;20021;-77
2021/08/16 10:30:11;;;;;;;15.80;6.10;;;37.80;40.00;;;;;;5052510;28;20443;-77
2021/08/16 10:32:37;;;;;;;11.40;5.47;;;37.90;40.40;;;;;;5053452;28;20129;-77
2021/08/16 10:35:13;;;;;;;10.82;6.05;;;37.90;39.90;;;;;;5052274;28;20029;-77
2021/08/16 10:37:41;;;;;;;14.52;5.60;;;38.00;40.20;;;;;;5053310;28;20021;-77
2021/08/16 10:40:25;;;;;;;15.77;5.82;;;37.90;39.50;;;;;;5052310;28;20025;-77
2021/08/16 10:42:54;;;;;;;21.40;6.82;;;37.70;39.60;;;;;;5052349;28;20104;-77
2021/08/16 10:45:29;;;;;;;12.45;5.80;;;37.50;40.00;;;;;;5052157;28;20406;-77
2021/08/16 10:48:05;;;;;;;;;;;37.40;39.70;;;;;;5052654;28;20120;-76
2021/08/16 10:50:30;;;;;;;15.80;5.53;;;37.30;39.90;;;;;;5052998;28;19913;-76
2021/08/16 10:53:02;;;;;;;10.85;5.20;;;37.20;39.70;;;;;;5052327;28;20114;-76
2021/08/16 10:55:30;;;;;;;13.05;6.15;;;36.90;39.60;;;;;;5052213;28;20430;-77
2021/08/16 10:57:56;;;;;;;11.93;5.90;;;36.90;39.90;;;;;;5053061;28;20078;-76
2021/08/16 11:00:22;;;;;;;14.45;5.55;;;36.80;40.50;;;;;;5053302;28;20025;-76
2021/08/16 11:02:55;;;;;;;12.68;5.50;;;37.00;40.40;;;;;;5053093;28;20082;-77
2021/08/16 11:05:32;;;;;;;14.25;5.78;;;37.10;39.70;;;;;;5053674;28;20025;-77
2021/08/16 11:08:02;;;;;;;11.00;5.50;;;36.90;39.90;;;;;;5052048;28;20048;-76
2021/08/16 11:10:39;;;;;;;11.18;5.75;;;36.90;40.60;;;;;;5051908;28;20029;-76
2021/08/16 11:13:20;;;;;;;13.73;6.25;;;36.90;40.10;;;;;;5051917;28;20104;-76
2021/08/16 11:15:48;;;;;;;17.13;6.40;;;36.70;40.00;;;;;;5052932;28;20523;-76
2021/08/16 11:18:20;;;;;;;12.48;5.97;;;36.50;40.50;;;;;;5051666;28;20410;-76
2021/08/16 11:21:06;;;;;;;16.90;6.18;;;36.40;40.70;;;;;;5051813;28;20045;-76
2021/08/16 11:23:33;;;;;;;10.75;5.60;;;36.30;41.10;;;;;;5051878;28;20032;-76
2021/08/16 11:25:59;;;;;;;19.83;5.70;;;36.40;40.90;;;;;;5051920;28;20021;-76
2021/08/16 11:28:28;;;;;;;16.88;5.72;;;36.30;40.70;;;;;;5053135;28;20028;-76
2021/08/16 11:31:06;;;;;;;15.68;5.95;;;36.10;40.40;;;;;;5056756;28;20033;-75
2021/08/16 11:33:32;;;;;;;11.73;6.63;;;35.80;40.40;;;;;;5058941;28;20470;-75
2021/08/16 11:36:08;;;;;;;14.63;6.07;;;35.50;40.60;;;;;;5058564;28;20025;-76
2021/08/16 11:38:34;;;;;;;8.80;4.88;;;35.20;41.20;;;;;;5055224;28;20023;-76
2021/08/16 11:41:08;;;;;;;15.10;5.07;;;34.60;41.20;;;;;;5055508;28;20029;-75
2021/08/16 11:43:34;;;;;;;16.92;6.07;;;33.90;42.30;;;;;;5055369;28;20115;-76
2021/08/16 11:46:16;;;;;;;17.50;6.68;;;33.30;43.00;;;;;;5056907;28;20060;-75
2021/08/16 11:48:53;;;;;;;12.98;4.75;;;32.80;43.90;;;;;;5055438;28;20025;-75
2021/08/16 11:51:20;;;;;;;12.05;5.28;;;32.50;44.00;;;;;;5055195;28;20025;-75
2021/08/16 11:53:48;;;;;;;16.27;5.82;;;32.10;44.60;;;;;;5055158;28;20024;-75
2021/08/16 11:56:14;;;;;;;15.10;5.22;;;31.80;45.00;;;;;;5055206;28;20021;-75
2021/08/16 11:58:43;;;;;;;11.05;4.88;;;31.50;45.90;;;;;;5055626;28;20025;-75
2021/08/16 12:01:11;;;;;;;9.55;4.45;;;31.40;46.20;;;;;;5054933;28;20029;-75
2021/08/16 12:03:37;;;;;;;9.50;4.50;;;31.30;46.60;;;;;;5054933;28;20158;-75
2021/08/16 12:06:05;;;;;;;11.25;5.05;;;31.20;46.20;;;;;;5054949;28;20036;-75
2021/08/16 12:08:33;;;;;;;11.25;4.80;;;31.00;46.30;;;;;;5054590;28;20364;-75
2021/08/16 12:11:00;;;;;;;13.23;4.57;;;30.80;46.60;;;;;;5054828;28;20031;-75
2021/08/16 12:13:26;;;;;;;11.68;5.13;;;30.70;46.70;;;;;;5054686;28;20060;-75
2021/08/16 12:15:52;;;;;;;14.23;4.88;;;30.60;47.30;;;;;;5054735;28;20447;-75
2021/08/16 12:18:33;;;;;;;10.23;5.35;;;30.50;47.80;;;;;;5055749;28;20028;-75
2021/08/16 12:20:59;;;;;;;15.88;5.30;;;30.40;47.60;;;;;;5056198;28;20025;-75
2021/08/16 12:23:35;;;;;;;16.50;5.63;;;30.40;48.10;;;;;;5055570;28;20401;-75
2021/08/16 12:26:03;;;;;;;18.40;5.97;;;30.50;48.40;;;;;;5056026;28;20043;-74
2021/08/16 12:28:44;;;;;;;16.55;5.90;;;30.60;48.20;;;;;;5054517;28;20037;-74
2021/08/16 12:31:14;;;;;;;16.17;5.68;;;30.60;47.80;;;;;;5055730;28;20036;-75